createdAt,value
2019-06-01T00:00:44.609Z,0.00
2019-06-01T00:01:44.761Z,0.00
2019-06-01T00:02:51.216Z,0.00
2019-06-01T00:03:46.468Z,0.00
2019-06-01T00:04:45.262Z,0.00
2019-06-01T00:05:44.639Z,0.00
2019-06-01T00:06:44.864Z,0.00
2019-06-01T00:07:44.932Z,0.00
2019-06-01T00:08:45.075Z,0.00
2019-06-01T00:09:45.171Z,0.00
2019-06-01T00:10:45.190Z,0.00
2019-06-01T00:11:45.564Z,0.00
2019-06-01T00:12:45.335Z,0.00
2019-06-01T00:13:45.597Z,0.00
2019-06-01T00:14:45.655Z,0.00
2019-06-01T00:15:44.451Z,0.00
2019-06-01T00:16:44.410Z,0.00
2019-06-01T00:17:44.418Z,0.00
2019-06-01T00:18:44.499Z,0.00
2019-06-01T00:19:44.398Z,0.00
2019-06-01T00:20:44.420Z,0.00
2019-06-01T00:21:45.431Z,0.00
2019-06-01T00:22:45.473Z,0.00
2019-06-01T00:23:44.471Z,0.00
2019-06-01T00:24:44.349Z,0.00
2019-06-01T00:25:44.627Z,0.00
2019-06-01T00:26:45.747Z,0.00
2019-06-01T00:27:44.720Z,0.00
2019-06-01T00:28:45.688Z,0.00
2019-06-01T00:29:44.715Z,0.00
2019-06-01T00:30:44.243Z,0.00
2019-06-01T00:31:45.289Z,0.00
2019-06-01T00:32:45.189Z,0.00
2019-06-01T00:33:45.461Z,0.00
2019-06-01T00:34:44.239Z,0.00
2019-06-01T00:35:45.322Z,0.00
2019-06-01T00:36:45.518Z,0.00
2019-06-01T00:37:45.534Z,0.00
2019-06-01T00:38:44.219Z,0.00
2019-06-01T00:39:44.211Z,0.00
2019-06-01T00:40:44.170Z,0.00
2019-06-01T00:41:44.160Z,0.00
2019-06-01T00:42:44.166Z,0.00
2019-06-01T00:43:44.234Z,0.00
2019-06-01T00:44:44.332Z,0.00
2019-06-01T00:45:44.476Z,0.00
2019-06-01T00:46:44.475Z,0.00
2019-06-01T00:47:44.754Z,0.00
2019-06-01T00:48:44.054Z,0.00
2019-06-01T00:49:44.695Z,0.00
2019-06-01T00:50:44.902Z,0.00
2019-06-01T00:51:45.046Z,0.00
2019-06-01T00:52:45.068Z,0.00
2019-06-01T00:53:45.250Z,0.00
2019-06-01T00:54:45.178Z,0.00
2019-06-01T00:55:45.860Z,0.00
2019-06-01T00:56:45.469Z,0.00
2019-06-01T00:57:43.993Z,0.00
2019-06-01T00:58:43.931Z,0.00
2019-06-01T00:59:43.963Z,0.00
2019-06-01T01:00:45.687Z,0.00
2019-06-01T01:01:43.971Z,0.00
2019-06-01T01:02:44.056Z,0.00
2019-06-01T01:03:44.029Z,0.00
2019-06-01T01:04:44.306Z,0.00
2019-06-01T01:05:44.616Z,0.00
2019-06-01T01:06:44.433Z,0.00
2019-06-01T01:07:44.525Z,0.00
2019-06-01T01:08:44.786Z,0.00
2019-06-01T01:09:46.807Z,0.00
2019-06-01T01:10:44.824Z,0.00
2019-06-01T01:11:44.829Z,0.00
2019-06-01T01:12:44.930Z,0.00
2019-06-01T01:13:45.552Z,0.00
2019-06-01T01:14:45.069Z,0.00
2019-06-01T01:15:43.776Z,0.00
2019-06-01T01:16:43.781Z,0.00
2019-06-01T01:17:43.773Z,0.00
2019-06-01T01:18:43.754Z,0.00
2019-06-01T01:19:43.743Z,0.00
2019-06-01T01:20:43.747Z,0.00
2019-06-01T01:21:43.804Z,0.00
2019-06-01T01:22:43.697Z,0.00
2019-06-01T01:23:43.704Z,0.00
2019-06-01T01:24:43.693Z,0.00
2019-06-01T01:25:43.804Z,0.00
2019-06-01T01:26:43.673Z,0.00
2019-06-01T01:27:43.655Z,0.00
2019-06-01T01:28:43.656Z,0.00
2019-06-01T01:29:43.656Z,0.00
2019-06-01T01:30:58.007Z,0.00
2019-06-01T01:31:44.633Z,0.00
2019-06-01T01:32:43.624Z,0.00
2019-06-01T01:33:43.598Z,0.00
2019-06-01T01:34:43.573Z,0.00
2019-06-01T01:35:43.582Z,0.00
2019-06-01T01:36:43.565Z,0.00
2019-06-01T01:37:43.687Z,0.00
2019-06-01T01:38:43.545Z,0.00
2019-06-01T01:39:43.526Z,0.00
2019-06-01T01:40:43.523Z,0.00
2019-06-01T01:41:43.624Z,0.00
2019-06-01T01:42:43.496Z,0.00
2019-06-01T01:43:43.486Z,0.00
2019-06-01T01:44:43.489Z,0.00
2019-06-01T01:45:43.424Z,0.00
2019-06-01T01:46:43.550Z,0.00
2019-06-01T01:47:43.452Z,0.00
2019-06-01T01:48:43.386Z,0.00
2019-06-01T01:49:43.416Z,0.00
2019-06-01T01:50:43.416Z,0.00
2019-06-01T01:51:43.396Z,0.00
2019-06-01T01:52:43.521Z,0.00
2019-06-01T01:53:43.391Z,0.00
2019-06-01T01:54:43.370Z,0.00
2019-06-01T01:55:43.362Z,0.00
2019-06-01T01:56:43.343Z,0.00
2019-06-01T01:57:43.416Z,0.00
2019-06-01T01:58:43.316Z,0.00
2019-06-01T01:59:43.319Z,0.00
2019-06-01T02:00:43.257Z,0.00
2019-06-01T02:01:43.291Z,0.00
2019-06-01T02:02:43.372Z,0.00
2019-06-01T02:03:43.270Z,0.00
2019-06-01T02:04:43.257Z,0.00
2019-06-01T02:05:43.273Z,0.00
2019-06-01T02:06:43.238Z,0.00
2019-06-01T02:07:43.348Z,0.00
2019-06-01T02:08:43.220Z,0.00
2019-06-01T02:09:43.210Z,0.00
2019-06-01T02:10:43.189Z,0.00
2019-06-01T02:11:43.195Z,0.00
2019-06-01T02:12:43.173Z,0.00
2019-06-01T02:13:43.158Z,0.00
2019-06-01T02:14:43.111Z,0.00
2019-06-01T02:15:43.098Z,0.00
2019-06-01T02:16:43.127Z,0.00
2019-06-01T02:17:43.127Z,0.00
2019-06-01T02:18:43.178Z,0.00
2019-06-01T02:19:43.088Z,0.00
2019-06-01T02:20:43.078Z,0.00
2019-06-01T02:21:43.068Z,0.00
2019-06-01T02:22:43.070Z,0.00
2019-06-01T02:23:43.127Z,0.00
2019-06-01T02:24:43.039Z,0.00
2019-06-01T02:25:43.032Z,0.00
2019-06-01T02:26:43.019Z,0.00
2019-06-01T02:27:43.002Z,0.00
2019-06-01T02:28:42.959Z,0.00
2019-06-01T02:29:42.978Z,0.00
2019-06-01T02:30:43.043Z,0.00
2019-06-01T02:31:43.094Z,0.00
2019-06-01T02:32:42.960Z,0.00
2019-06-01T02:33:43.069Z,0.00
2019-06-01T02:34:42.929Z,0.00
2019-06-01T02:35:42.919Z,0.00
2019-06-01T02:36:42.901Z,0.00
2019-06-01T02:37:42.890Z,0.00
2019-06-01T02:38:43.005Z,0.00
2019-06-01T02:39:42.870Z,0.00
2019-06-01T02:40:42.850Z,0.00
2019-06-01T02:41:42.851Z,0.00
2019-06-01T02:42:42.840Z,0.00
2019-06-01T02:43:42.832Z,0.00
2019-06-01T02:44:42.784Z,0.00
2019-06-01T02:45:42.814Z,0.00
2019-06-01T02:46:42.798Z,0.00
2019-06-01T02:47:42.733Z,0.00
2019-06-01T02:48:42.771Z,0.00
2019-06-01T02:49:42.841Z,0.00
2019-06-01T02:50:42.751Z,0.00
2019-06-01T02:51:42.731Z,0.00
2019-06-01T02:52:42.756Z,0.00
2019-06-01T02:53:42.721Z,0.00
2019-06-01T02:54:42.742Z,0.00
2019-06-01T02:55:42.700Z,0.00
2019-06-01T02:56:42.649Z,0.00
2019-06-01T02:57:42.671Z,0.00
2019-06-01T02:58:42.718Z,0.00
2019-06-01T02:59:42.754Z,0.00
2019-06-01T03:00:42.601Z,0.00
2019-06-01T03:01:55.922Z,0.00
2019-06-01T03:02:43.621Z,5.62
2019-06-01T03:03:42.615Z,5.62
2019-06-01T03:04:42.560Z,5.62
2019-06-01T03:05:42.702Z,5.62
2019-06-01T03:06:42.587Z,5.62
2019-06-01T03:07:42.535Z,5.62
2019-06-01T03:08:42.564Z,5.62
2019-06-01T03:09:42.546Z,5.62
2019-06-01T03:10:42.653Z,11.25
2019-06-01T03:11:42.533Z,11.25
2019-06-01T03:12:42.518Z,11.25
2019-06-01T03:13:42.472Z,11.25
2019-06-01T03:14:42.482Z,11.25
2019-06-01T03:15:42.490Z,16.88
2019-06-01T03:16:42.482Z,16.88
2019-06-01T03:17:42.452Z,16.88
2019-06-01T03:18:42.513Z,16.88
2019-06-01T03:19:42.433Z,16.88
2019-06-01T03:20:42.382Z,22.50
2019-06-01T03:21:42.413Z,22.50
2019-06-01T03:22:42.402Z,22.50
2019-06-01T03:23:42.473Z,28.12
2019-06-01T03:24:42.462Z,28.12
2019-06-01T03:25:42.376Z,28.12
2019-06-01T03:26:42.369Z,28.12
2019-06-01T03:27:42.343Z,33.75
2019-06-01T03:28:42.342Z,33.75
2019-06-01T03:29:42.444Z,33.75
2019-06-01T03:30:45.482Z,39.38
2019-06-01T03:31:42.434Z,39.38
2019-06-01T03:32:42.297Z,39.38
2019-06-01T03:33:42.274Z,45.00
2019-06-01T03:34:42.408Z,45.00
2019-06-01T03:35:42.263Z,45.00
2019-06-01T03:36:42.323Z,50.62
2019-06-01T03:37:42.248Z,50.62
2019-06-01T03:38:42.237Z,56.25
2019-06-01T03:39:42.187Z,56.25
2019-06-01T03:40:42.154Z,56.25
2019-06-01T03:41:42.285Z,61.88
2019-06-01T03:42:42.204Z,61.88
2019-06-01T03:43:42.174Z,61.88
2019-06-01T03:44:42.169Z,67.50
2019-06-01T03:45:42.145Z,67.50
2019-06-01T03:46:42.218Z,73.12
2019-06-01T03:47:42.127Z,73.12
2019-06-01T03:48:42.121Z,73.12
2019-06-01T03:49:42.134Z,78.75
2019-06-01T03:50:42.095Z,78.75
2019-06-01T03:51:42.176Z,78.75
2019-06-01T03:52:42.064Z,84.38
2019-06-01T03:53:42.054Z,84.38
2019-06-01T03:54:42.044Z,84.38
2019-06-01T03:55:42.115Z,90.00
2019-06-01T03:56:42.030Z,90.00
2019-06-01T03:57:42.014Z,90.00
2019-06-01T03:58:42.006Z,95.62
2019-06-01T03:59:41.995Z,95.62
2019-06-01T04:00:41.999Z,101.25
2019-06-01T04:01:42.107Z,101.25
2019-06-01T04:02:41.969Z,106.88
2019-06-01T04:03:41.955Z,112.50
2019-06-01T04:04:41.935Z,112.50
2019-06-01T04:05:41.939Z,118.12
2019-06-01T04:06:41.907Z,118.12
2019-06-01T04:07:41.858Z,123.75
2019-06-01T04:08:41.966Z,123.75
2019-06-01T04:09:41.886Z,123.75
2019-06-01T04:10:41.880Z,129.38
2019-06-01T04:11:41.872Z,135.00
2019-06-01T04:12:41.946Z,140.62
2019-06-01T04:13:41.849Z,140.62
2019-06-01T04:14:41.826Z,146.25
2019-06-01T04:15:41.822Z,151.88
2019-06-01T04:16:41.910Z,151.88
2019-06-01T04:17:41.796Z,157.50
2019-06-01T04:18:41.883Z,163.12
2019-06-01T04:19:41.829Z,168.75
2019-06-01T04:20:41.744Z,168.75
2019-06-01T04:21:41.758Z,174.38
2019-06-01T04:22:41.817Z,180.00
2019-06-01T04:23:41.809Z,180.00
2019-06-01T04:24:41.730Z,185.62
2019-06-01T04:25:41.706Z,191.25
2019-06-01T04:26:41.705Z,191.25
2019-06-01T04:27:41.788Z,196.88
2019-06-01T04:28:41.680Z,202.50
2019-06-01T04:29:41.749Z,208.12
2019-06-01T04:30:41.657Z,213.75
2019-06-01T04:31:41.638Z,213.75
2019-06-01T04:32:49.884Z,219.38
2019-06-01T04:33:42.726Z,225.00
2019-06-01T04:34:41.622Z,225.00
2019-06-01T04:35:41.679Z,225.00
2019-06-01T04:36:41.598Z,225.00
2019-06-01T04:37:41.593Z,230.62
2019-06-01T04:38:41.574Z,230.62
2019-06-01T04:39:41.557Z,236.25
2019-06-01T04:40:41.568Z,236.25
2019-06-01T04:41:41.645Z,241.88
2019-06-01T04:42:41.530Z,241.88
2019-06-01T04:43:41.500Z,241.88
2019-06-01T04:44:41.626Z,236.25
2019-06-01T04:45:41.470Z,236.25
2019-06-01T04:46:41.478Z,236.25
2019-06-01T04:47:41.485Z,236.25
2019-06-01T04:48:41.588Z,236.25
2019-06-01T04:49:41.429Z,241.88
2019-06-01T04:50:41.429Z,241.88
2019-06-01T04:51:41.428Z,241.88
2019-06-01T04:52:41.419Z,241.88
2019-06-01T04:53:41.489Z,241.88
2019-06-01T04:54:41.399Z,241.88
2019-06-01T04:55:41.509Z,241.88
2019-06-01T04:56:41.332Z,241.88
2019-06-01T04:57:41.361Z,241.88
2019-06-01T04:58:41.362Z,247.50
2019-06-01T04:59:41.340Z,247.50
2019-06-01T05:00:41.341Z,253.12
2019-06-01T05:01:41.321Z,258.75
2019-06-01T05:02:41.310Z,258.75
2019-06-01T05:03:41.301Z,264.38
2019-06-01T05:04:43.531Z,270.00
2019-06-01T05:05:41.400Z,275.62
2019-06-01T05:06:41.382Z,281.25
2019-06-01T05:07:41.251Z,286.88
2019-06-01T05:08:41.242Z,292.50
2019-06-01T05:09:41.232Z,298.12
2019-06-01T05:10:41.226Z,298.12
2019-06-01T05:11:41.312Z,303.75
2019-06-01T05:12:41.162Z,309.38
2019-06-01T05:13:41.192Z,309.38
2019-06-01T05:14:41.196Z,315.00
2019-06-01T05:15:41.172Z,320.62
2019-06-01T05:16:41.233Z,326.25
2019-06-01T05:17:41.153Z,326.25
2019-06-01T05:18:41.137Z,326.25
2019-06-01T05:19:41.133Z,320.62
2019-06-01T05:20:41.119Z,315.00
2019-06-01T05:21:41.152Z,303.75
2019-06-01T05:22:41.093Z,292.50
2019-06-01T05:23:41.163Z,292.50
2019-06-01T05:24:41.039Z,286.88
2019-06-01T05:25:41.066Z,275.62
2019-06-01T05:26:41.163Z,281.25
2019-06-01T05:27:41.126Z,298.12
2019-06-01T05:28:41.167Z,309.38
2019-06-01T05:29:41.024Z,303.75
2019-06-01T05:30:41.004Z,303.75
2019-06-01T05:31:40.994Z,303.75
2019-06-01T05:32:40.945Z,298.12
2019-06-01T05:33:40.975Z,303.75
2019-06-01T05:34:41.095Z,315.00
2019-06-01T05:35:40.955Z,326.25
2019-06-01T05:36:40.969Z,320.62
2019-06-01T05:37:41.048Z,326.25
2019-06-01T05:38:41.055Z,343.12
2019-06-01T05:39:40.906Z,343.12
2019-06-01T05:40:40.896Z,348.75
2019-06-01T05:41:40.846Z,343.12
2019-06-01T05:42:41.020Z,343.12
2019-06-01T05:43:40.866Z,337.50
2019-06-01T05:44:40.855Z,337.50
2019-06-01T05:45:40.846Z,326.25
2019-06-01T05:46:40.847Z,320.62
2019-06-01T05:47:40.819Z,315.00
2019-06-01T05:48:40.890Z,309.38
2019-06-01T05:49:40.796Z,315.00
2019-06-01T05:50:40.787Z,326.25
2019-06-01T05:51:40.777Z,331.88
2019-06-01T05:52:40.857Z,331.88
2019-06-01T05:53:40.888Z,337.50
2019-06-01T05:54:40.707Z,337.50
2019-06-01T05:55:40.737Z,337.50
2019-06-01T05:56:40.718Z,343.12
2019-06-01T05:57:40.668Z,348.75
2019-06-01T05:58:40.778Z,354.38
2019-06-01T05:59:40.649Z,354.38
2019-06-01T06:00:40.682Z,360.00
2019-06-01T06:01:40.679Z,365.62
2019-06-01T06:02:40.661Z,371.25
2019-06-01T06:03:40.933Z,376.88
2019-06-01T06:04:40.638Z,393.75
2019-06-01T06:05:40.629Z,416.25
2019-06-01T06:06:40.582Z,528.75
2019-06-01T06:07:47.129Z,888.75
2019-06-01T06:08:40.729Z,1063.12
2019-06-01T06:09:40.611Z,1063.12
2019-06-01T06:10:40.570Z,1046.25
2019-06-01T06:11:40.560Z,1080.00
2019-06-01T06:12:40.552Z,1119.38
2019-06-01T06:13:40.610Z,1136.25
2019-06-01T06:14:40.539Z,1125.00
2019-06-01T06:15:40.521Z,1091.25
2019-06-01T06:16:40.471Z,1130.62
2019-06-01T06:17:40.490Z,1147.50
2019-06-01T06:18:40.497Z,1181.25
2019-06-01T06:19:40.611Z,1006.88
2019-06-01T06:20:40.461Z,961.88
2019-06-01T06:21:40.451Z,916.88
2019-06-01T06:22:41.248Z,1001.25
2019-06-01T06:23:40.535Z,956.25
2019-06-01T06:24:40.546Z,1085.62
2019-06-01T06:25:41.482Z,1108.12
2019-06-01T06:26:40.404Z,1001.25
2019-06-01T06:27:40.396Z,995.62
2019-06-01T06:28:40.373Z,990.00
2019-06-01T06:29:40.333Z,1164.38
2019-06-01T06:30:40.314Z,1068.75
2019-06-01T06:31:40.344Z,1164.38
2019-06-01T06:32:40.324Z,1198.12
2019-06-01T06:33:55.155Z,1243.12
2019-06-01T06:34:41.385Z,1316.25
2019-06-01T06:35:40.306Z,1333.12
2019-06-01T06:36:40.298Z,1338.75
2019-06-01T06:37:42.355Z,1350.00
2019-06-01T06:38:40.275Z,1361.25
2019-06-01T06:39:40.325Z,1406.25
2019-06-01T06:40:40.246Z,1327.50
2019-06-01T06:41:40.236Z,1355.62
2019-06-01T06:42:40.223Z,1400.62
2019-06-01T06:43:40.215Z,1423.12
2019-06-01T06:44:40.277Z,1518.75
2019-06-01T06:45:40.274Z,1530.00
2019-06-01T06:46:40.186Z,1490.62
2019-06-01T06:47:40.167Z,1479.38
2019-06-01T06:48:40.169Z,1496.25
2019-06-01T06:49:40.157Z,1569.38
2019-06-01T06:50:40.170Z,1586.25
2019-06-01T06:51:40.128Z,1546.88
2019-06-01T06:52:40.120Z,1518.75
2019-06-01T06:53:40.111Z,1513.12
2019-06-01T06:54:40.089Z,1530.00
2019-06-01T06:55:40.219Z,1541.25
2019-06-01T06:56:40.179Z,1507.50
2019-06-01T06:57:40.142Z,1496.25
2019-06-01T06:58:40.072Z,1462.50
2019-06-01T06:59:40.053Z,1383.75
2019-06-01T07:00:40.003Z,1428.75
2019-06-01T07:01:40.021Z,1456.88
2019-06-01T07:02:39.989Z,1513.12
2019-06-01T07:03:39.961Z,1468.12
2019-06-01T07:04:39.998Z,1468.12
2019-06-01T07:05:39.994Z,1530.00
2019-06-01T07:06:40.123Z,1507.50
2019-06-01T07:07:39.912Z,1423.12
2019-06-01T07:08:39.942Z,1468.12
2019-06-01T07:09:39.949Z,1541.25
2019-06-01T07:10:39.923Z,1541.25
2019-06-01T07:11:40.049Z,1558.12
2019-06-01T07:12:39.905Z,1569.38
2019-06-01T07:13:39.906Z,1541.25
2019-06-01T07:14:39.885Z,1625.62
2019-06-01T07:15:39.883Z,1665.00
2019-06-01T07:16:39.979Z,1710.00
2019-06-01T07:17:39.865Z,1822.50
2019-06-01T07:18:39.844Z,1771.88
2019-06-01T07:19:39.939Z,1698.75
2019-06-01T07:20:39.825Z,1653.75
2019-06-01T07:21:39.910Z,1608.75
2019-06-01T07:22:39.784Z,1783.12
2019-06-01T07:23:39.933Z,1856.25
2019-06-01T07:24:39.789Z,1873.12
2019-06-01T07:25:39.762Z,1845.00
2019-06-01T07:26:39.890Z,1839.38
2019-06-01T07:27:39.743Z,1873.12
2019-06-01T07:28:39.728Z,1800.00
2019-06-01T07:29:39.727Z,1890.00
2019-06-01T07:30:49.617Z,2098.12
2019-06-01T07:31:40.779Z,2199.38
2019-06-01T07:32:39.691Z,2109.38
2019-06-01T07:33:39.678Z,2036.25
2019-06-01T07:34:42.520Z,1940.62
2019-06-01T07:35:39.659Z,1963.12
2019-06-01T07:36:39.650Z,2019.38
2019-06-01T07:37:39.734Z,1963.12
2019-06-01T07:38:39.642Z,1828.12
2019-06-01T07:39:39.614Z,1884.38
2019-06-01T07:40:39.682Z,2036.25
2019-06-01T07:41:39.593Z,2165.62
2019-06-01T07:42:39.662Z,2075.62
2019-06-01T07:43:39.649Z,2126.25
2019-06-01T07:44:39.559Z,2176.88
2019-06-01T07:45:39.515Z,2154.38
2019-06-01T07:46:39.531Z,2126.25
2019-06-01T07:47:39.615Z,2148.75
2019-06-01T07:48:39.513Z,2160.00
2019-06-01T07:49:39.507Z,2188.12
2019-06-01T07:50:39.483Z,2210.62
2019-06-01T07:51:39.574Z,2283.75
2019-06-01T07:52:39.435Z,2154.38
2019-06-01T07:53:39.479Z,2154.38
2019-06-01T07:54:39.454Z,2266.88
2019-06-01T07:55:39.448Z,2323.12
2019-06-01T07:56:39.505Z,2306.25
2019-06-01T07:57:43.201Z,2311.88
2019-06-01T07:58:39.407Z,2407.50
2019-06-01T07:59:39.357Z,2345.62
2019-06-01T08:00:39.476Z,2300.62
2019-06-01T08:01:39.392Z,2328.75
2019-06-01T08:02:39.488Z,2446.88
2019-06-01T08:03:39.360Z,2418.75
2019-06-01T08:04:52.583Z,2424.38
2019-06-01T08:05:40.339Z,2441.25
2019-06-01T08:06:45.155Z,2475.00
2019-06-01T08:07:40.440Z,2424.38
2019-06-01T08:08:39.309Z,2435.62
2019-06-01T08:09:39.298Z,2446.88
2019-06-01T08:10:39.419Z,2306.25
2019-06-01T08:11:39.279Z,2446.88
2019-06-01T08:12:39.220Z,2379.38
2019-06-01T08:13:39.343Z,2396.25
2019-06-01T08:14:39.201Z,2446.88
2019-06-01T08:15:39.245Z,2480.62
2019-06-01T08:16:39.182Z,2480.62
2019-06-01T08:17:39.205Z,2340.00
2019-06-01T08:18:39.239Z,2469.38
2019-06-01T08:19:39.322Z,2446.88
2019-06-01T08:20:39.302Z,2503.12
2019-06-01T08:21:39.172Z,2671.88
2019-06-01T08:22:39.165Z,2536.88
2019-06-01T08:23:39.154Z,2638.12
2019-06-01T08:24:39.244Z,2536.88
2019-06-01T08:25:39.144Z,2385.00
2019-06-01T08:26:39.197Z,2441.25
2019-06-01T08:27:39.105Z,2373.75
2019-06-01T08:28:39.046Z,2463.75
2019-06-01T08:29:39.142Z,2750.62
2019-06-01T08:30:39.080Z,2593.12
2019-06-01T08:31:39.177Z,2649.38
2019-06-01T08:32:39.067Z,2694.38
2019-06-01T08:33:39.037Z,2525.62
2019-06-01T08:34:39.027Z,2705.62
2019-06-01T08:35:39.018Z,2626.88
2019-06-01T08:36:39.098Z,2666.25
2019-06-01T08:37:39.008Z,2750.62
2019-06-01T08:38:38.998Z,2835.00
2019-06-01T08:39:38.988Z,2660.62
2019-06-01T08:40:38.969Z,2671.88
2019-06-01T08:41:39.089Z,2913.75
2019-06-01T08:42:38.953Z,2846.25
2019-06-01T08:43:38.949Z,2688.75
2019-06-01T08:44:38.942Z,2896.88
2019-06-01T08:45:38.923Z,3065.62
2019-06-01T08:46:39.041Z,3076.88
2019-06-01T08:47:38.899Z,3048.75
2019-06-01T08:48:38.893Z,3228.75
2019-06-01T08:49:38.875Z,2930.62
2019-06-01T08:50:38.882Z,2711.25
2019-06-01T08:51:38.825Z,3093.75
2019-06-01T08:52:38.964Z,3178.12
2019-06-01T08:53:38.846Z,2970.00
2019-06-01T08:54:38.837Z,2992.50
2019-06-01T08:55:38.813Z,2975.62
2019-06-01T08:56:38.903Z,1890.00
2019-06-01T08:57:38.798Z,2283.75
2019-06-01T08:58:38.787Z,2418.75
2019-06-01T08:59:38.784Z,2548.12
2019-06-01T09:00:38.766Z,2722.50
2019-06-01T09:01:39.109Z,2750.62
2019-06-01T09:02:38.816Z,3015.00
2019-06-01T09:03:45.449Z,3217.50
2019-06-01T09:04:39.728Z,3498.75
2019-06-01T09:05:38.708Z,3448.12
2019-06-01T09:06:38.709Z,2925.00
2019-06-01T09:07:39.089Z,3026.25
2019-06-01T09:08:38.680Z,3195.00
2019-06-01T09:09:38.629Z,3268.12
2019-06-01T09:10:38.630Z,3538.12
2019-06-01T09:11:38.651Z,3600.00
2019-06-01T09:12:38.639Z,3875.62
2019-06-01T09:13:38.752Z,2829.38
2019-06-01T09:14:38.635Z,1513.12
2019-06-01T09:15:38.612Z,1552.50
2019-06-01T09:16:38.729Z,1603.12
2019-06-01T09:17:38.590Z,1698.75
2019-06-01T09:18:38.665Z,1794.38
2019-06-01T09:19:38.602Z,1580.62
2019-06-01T09:20:38.979Z,1777.50
2019-06-01T09:21:38.664Z,1996.88
2019-06-01T09:22:38.622Z,2120.62
2019-06-01T09:23:38.666Z,2373.75
2019-06-01T09:24:38.536Z,2626.88
2019-06-01T09:25:38.514Z,2632.50
2019-06-01T09:26:38.509Z,2694.38
2019-06-01T09:27:38.498Z,2598.75
2019-06-01T09:28:38.635Z,2418.75
2019-06-01T09:29:38.557Z,1760.62
2019-06-01T09:30:38.477Z,1946.25
2019-06-01T09:31:38.446Z,2289.38
2019-06-01T09:32:38.387Z,3330.00
2019-06-01T09:33:38.431Z,3341.25
2019-06-01T09:34:38.552Z,3391.88
2019-06-01T09:35:52.751Z,3414.38
2019-06-01T09:36:39.403Z,3459.38
2019-06-01T09:37:38.390Z,3330.00
2019-06-01T09:38:38.379Z,3285.00
2019-06-01T09:39:38.502Z,3403.12
2019-06-01T09:40:38.362Z,3313.12
2019-06-01T09:41:38.304Z,3358.12
2019-06-01T09:42:38.330Z,3571.88
2019-06-01T09:43:38.293Z,3892.50
2019-06-01T09:44:38.311Z,3830.62
2019-06-01T09:45:38.438Z,3414.38
2019-06-01T09:46:38.292Z,3436.88
2019-06-01T09:47:38.242Z,3341.25
2019-06-01T09:48:38.279Z,3510.00
2019-06-01T09:49:38.392Z,3335.62
2019-06-01T09:50:38.257Z,3206.25
2019-06-01T09:51:38.245Z,3150.00
2019-06-01T09:52:38.257Z,2216.25
2019-06-01T09:53:38.225Z,1918.12
2019-06-01T09:54:38.217Z,1434.38
2019-06-01T09:55:38.485Z,1800.00
2019-06-01T09:56:39.802Z,2075.62
2019-06-01T09:57:38.440Z,2919.38
2019-06-01T09:58:38.864Z,3453.75
2019-06-01T09:59:38.244Z,3577.50
2019-06-01T10:00:42.082Z,3667.50
2019-06-01T10:01:39.140Z,3605.62
2019-06-01T10:02:38.374Z,3735.00
2019-06-01T10:03:38.562Z,3594.38
2019-06-01T10:04:38.829Z,3526.88
2019-06-01T10:05:38.578Z,3549.38
2019-06-01T10:06:38.717Z,3605.62
2019-06-01T10:07:39.320Z,3780.00
2019-06-01T10:08:38.223Z,3706.88
2019-06-01T10:09:38.080Z,3723.75
2019-06-01T10:10:38.148Z,3808.12
2019-06-01T10:11:38.198Z,2992.50
2019-06-01T10:12:38.279Z,3712.50
2019-06-01T10:13:38.403Z,3909.38
2019-06-01T10:14:39.337Z,3841.88
2019-06-01T10:15:38.543Z,3622.50
2019-06-01T10:16:38.908Z,3757.50
2019-06-01T10:17:39.077Z,3808.12
2019-06-01T10:18:39.026Z,3673.12
2019-06-01T10:19:38.901Z,3740.62
2019-06-01T10:20:39.105Z,3825.00
2019-06-01T10:21:38.092Z,3937.50
2019-06-01T10:22:39.378Z,3960.00
2019-06-01T10:23:38.453Z,3943.12
2019-06-01T10:24:39.189Z,3825.00
2019-06-01T10:25:38.548Z,3999.38
2019-06-01T10:26:37.896Z,3886.88
2019-06-01T10:27:38.679Z,3768.75
2019-06-01T10:28:37.969Z,3875.62
2019-06-01T10:29:39.934Z,3931.88
2019-06-01T10:30:37.955Z,3931.88
2019-06-01T10:31:41.021Z,3870.00
2019-06-01T10:32:38.179Z,3836.25
2019-06-01T10:33:38.940Z,3796.88
2019-06-01T10:34:37.824Z,4005.00
2019-06-01T10:35:38.952Z,3931.88
2019-06-01T10:36:38.084Z,3943.12
2019-06-01T10:37:37.899Z,3881.25
2019-06-01T10:38:37.850Z,3808.12
2019-06-01T10:39:37.771Z,3971.25
2019-06-01T10:40:37.760Z,3993.75
2019-06-01T10:41:37.743Z,3802.50
2019-06-01T10:42:38.082Z,3791.25
2019-06-01T10:43:37.783Z,3948.75
2019-06-01T10:44:41.499Z,3886.88
2019-06-01T10:45:39.867Z,3796.88
2019-06-01T10:46:38.038Z,3633.75
2019-06-01T10:47:38.225Z,3763.12
2019-06-01T10:48:38.078Z,4044.38
2019-06-01T10:49:38.027Z,4128.75
2019-06-01T10:50:38.498Z,3920.62
2019-06-01T10:51:38.261Z,3847.50
2019-06-01T10:52:38.386Z,4111.88
2019-06-01T10:53:38.205Z,3999.38
2019-06-01T10:54:38.327Z,3864.38
2019-06-01T10:55:38.416Z,3915.00
2019-06-01T10:56:38.500Z,3864.38
2019-06-01T10:57:38.505Z,3639.38
2019-06-01T10:58:54.771Z,3785.62
2019-06-01T10:59:38.702Z,4033.12
2019-06-01T11:00:45.477Z,4123.12
2019-06-01T11:01:38.889Z,3954.38
2019-06-01T11:02:38.838Z,3847.50
2019-06-01T11:03:38.672Z,4033.12
2019-06-01T11:04:38.845Z,4275.00
2019-06-01T11:05:38.758Z,4050.00
2019-06-01T11:06:43.333Z,4016.25
2019-06-01T11:07:39.031Z,4179.38
2019-06-01T11:08:38.926Z,3954.38
2019-06-01T11:09:37.550Z,3796.88
2019-06-01T11:10:37.470Z,3690.00
2019-06-01T11:11:37.411Z,3746.25
2019-06-01T11:12:37.440Z,3971.25
2019-06-01T11:13:37.432Z,4145.62
2019-06-01T11:14:37.531Z,4365.00
2019-06-01T11:15:37.544Z,4258.12
2019-06-01T11:16:37.416Z,4033.12
2019-06-01T11:17:37.413Z,4196.25
2019-06-01T11:18:37.540Z,4246.88
2019-06-01T11:19:37.497Z,4027.50
2019-06-01T11:20:37.376Z,3993.75
2019-06-01T11:21:37.498Z,3931.88
2019-06-01T11:22:37.576Z,3943.12
2019-06-01T11:23:37.550Z,3999.38
2019-06-01T11:24:37.504Z,3841.88
2019-06-01T11:25:37.606Z,3785.62
2019-06-01T11:26:37.653Z,4095.00
2019-06-01T11:27:37.772Z,4095.00
2019-06-01T11:28:38.202Z,4179.38
2019-06-01T11:29:42.956Z,4117.50
2019-06-01T11:30:38.268Z,3993.75
2019-06-01T11:31:38.312Z,4111.88
2019-06-01T11:32:39.536Z,4162.50
2019-06-01T11:33:38.186Z,4173.75
2019-06-01T11:34:38.409Z,4185.00
2019-06-01T11:35:37.275Z,4156.88
2019-06-01T11:36:56.842Z,4185.00
2019-06-01T11:37:38.522Z,4111.88
2019-06-01T11:38:38.341Z,4235.62
2019-06-01T11:39:38.407Z,4258.12
2019-06-01T11:40:38.514Z,3931.88
2019-06-01T11:41:38.277Z,3504.38
2019-06-01T11:42:37.211Z,3948.75
2019-06-01T11:43:38.516Z,3864.38
2019-06-01T11:44:37.132Z,3841.88
2019-06-01T11:45:37.122Z,3960.00
2019-06-01T11:46:37.197Z,3982.50
2019-06-01T11:47:37.123Z,3926.25
2019-06-01T11:48:37.255Z,3701.25
2019-06-01T11:49:37.213Z,3706.88
2019-06-01T11:50:37.094Z,3740.62
2019-06-01T11:51:37.144Z,3892.50
2019-06-01T11:52:37.203Z,4055.62
2019-06-01T11:53:37.422Z,3920.62
2019-06-01T11:54:37.111Z,3836.25
2019-06-01T11:55:37.101Z,3796.88
2019-06-01T11:56:37.267Z,3858.75
2019-06-01T11:57:37.495Z,4005.00
2019-06-01T11:58:37.234Z,4100.62
2019-06-01T11:59:37.276Z,4106.25
2019-06-01T12:00:37.563Z,4196.25
2019-06-01T12:01:37.743Z,4381.88
2019-06-01T12:02:37.484Z,4275.00
2019-06-01T12:03:37.666Z,4269.38
2019-06-01T12:04:37.861Z,4325.62
2019-06-01T12:05:37.877Z,4432.50
2019-06-01T12:06:37.793Z,4415.62
2019-06-01T12:07:37.691Z,4196.25
2019-06-01T12:08:38.043Z,4033.12
2019-06-01T12:09:37.719Z,4291.88
2019-06-01T12:10:36.881Z,4483.12
2019-06-01T12:11:37.869Z,4280.62
2019-06-01T12:12:38.099Z,4179.38
2019-06-01T12:13:38.012Z,4269.38
2019-06-01T12:14:38.319Z,4258.12
2019-06-01T12:15:38.277Z,4207.50
2019-06-01T12:16:36.823Z,4190.62
2019-06-01T12:17:36.904Z,4072.50
2019-06-01T12:18:36.763Z,4173.75
2019-06-01T12:19:36.795Z,4134.38
2019-06-01T12:20:36.786Z,3915.00
2019-06-01T12:21:37.121Z,3870.00
2019-06-01T12:22:36.820Z,3622.50
2019-06-01T12:23:37.346Z,3633.75
2019-06-01T12:24:36.944Z,3841.88
2019-06-01T12:25:38.106Z,3971.25
2019-06-01T12:26:37.259Z,3858.75
2019-06-01T12:27:37.312Z,3819.38
2019-06-01T12:28:37.539Z,3886.88
2019-06-01T12:29:37.426Z,3937.50
2019-06-01T12:30:37.520Z,3926.25